createdAt,value
2023-03-28T00:04:03.015Z,24.1
2023-03-28T00:09:39.259Z,23.5
2023-03-28T00:15:15.901Z,23.4
2023-03-28T00:20:51.701Z,23.1
2023-03-28T00:26:27.235Z,22.9
2023-03-28T00:31:47.318Z,22.8
2023-03-28T00:37:39.439Z,22.4
2023-03-28T00:43:15.398Z,22.6
2023-03-28T00:49:24.555Z,24.8
2023-03-28T00:55:00.574Z,24.4
2023-03-28T01:00:36.327Z,24.1
2023-03-28T01:06:13.509Z,23.9
2023-03-28T01:11:49.767Z,23.5
2023-03-28T01:17:28.494Z,23.3
2023-03-28T01:22:56.079Z,23.1
2023-03-28T01:27:50.939Z,22.7
2023-03-28T01:33:26.806Z,22.6
2023-03-28T01:39:04.157Z,22.3
2023-03-28T01:44:40.534Z,22.4
2023-03-28T01:50:17.044Z,24.6
2023-03-28T01:55:59.109Z,24.4
2023-03-28T02:01:36.191Z,23.9
2023-03-28T02:07:12.537Z,23.9
2023-03-28T02:13:04.397Z,23.4
2023-03-28T02:18:55.646Z,23.3
2023-03-28T02:24:31.814Z,23
2023-03-28T02:30:23.821Z,22.6
2023-03-28T02:36:15.688Z,22.5
2023-03-28T02:42:06.825Z,22.1
2023-03-28T02:48:01.898Z,23.3
2023-03-28T02:53:31.581Z,25.1
2023-03-28T02:59:22.849Z,24.2
2023-03-28T03:05:00.619Z,23.8
2023-03-28T03:10:36.888Z,23.8
2023-03-28T03:16:13.509Z,23.5
2023-03-28T03:21:49.830Z,23.1
2023-03-28T03:27:12.170Z,22.9
2023-03-28T03:32:57.903Z,22.5
2023-03-28T03:38:37.401Z,22.9
2023-03-28T03:44:13.864Z,24.6
2023-03-28T03:49:40.575Z,24.4
2023-03-28T03:55:17.065Z,23.9
2023-03-28T04:00:37.878Z,23.9
2023-03-28T04:06:27.409Z,23.4
2023-03-28T04:12:03.673Z,23.3
2023-03-28T04:17:48.050Z,22.8
2023-03-28T04:23:52.141Z,22.6
2023-03-28T04:29:28.844Z,22.5
2023-03-28T04:35:05.747Z,24.2
2023-03-28T04:40:03.669Z,22.5
2023-03-28T04:45:25.004Z,24.1
2023-03-28T04:51:17.172Z,25.6
2023-03-28T04:57:08.966Z,24.1
2023-03-28T05:02:45.869Z,24.1
2023-03-28T05:08:38.724Z,23.6
2023-03-28T05:14:29.985Z,23.4
2023-03-28T05:20:25.970Z,22.9
2023-03-28T05:26:20.988Z,22.7
2023-03-28T05:32:11.482Z,22.2
2023-03-28T05:38:03.983Z,23.8
2023-03-28T05:43:55.338Z,25.4
2023-03-28T05:49:46.257Z,23.9
2023-03-28T05:55:26.378Z,24
2023-03-28T06:01:18.792Z,23.6
2023-03-28T06:07:11.578Z,23.4
2023-03-28T06:13:16.396Z,22.9
2023-03-28T06:19:32.895Z,22.7
2023-03-28T06:25:09.534Z,22.2
2023-03-28T06:31:01.863Z,23.7
2023-03-28T06:36:54.349Z,25.3
2023-03-28T06:42:46.281Z,24.1
2023-03-28T06:48:23.142Z,24
2023-03-28T06:53:59.421Z,23.6
2023-03-28T06:59:50.320Z,23.4
2023-03-28T07:05:46.566Z,22.9
2023-03-28T07:11:22.287Z,22.8
2023-03-28T07:17:15.561Z,22.2
2023-03-28T07:23:16.147Z,23.4
2023-03-28T07:29:26.062Z,25.1
2023-03-28T07:35:49.867Z,24.1
2023-03-28T07:41:10.323Z,24.1
2023-03-28T07:46:46.239Z,23.7
2023-03-28T07:52:37.786Z,23.5
2023-03-28T07:58:40.281Z,22.9
2023-03-28T08:04:32.450Z,22.8
2023-03-28T08:10:38.566Z,22.2
2023-03-28T08:16:30.463Z,23.5
2023-03-28T08:22:34.267Z,25.1
2023-03-28T08:28:20.243Z,24.1
2023-03-28T08:34:12.218Z,23.9
2023-03-28T08:40:07.163Z,23.6
2023-03-28T08:45:43.030Z,23.4
2023-03-28T08:51:37.806Z,22.9
2023-03-28T08:57:31.427Z,22.7
2023-03-28T09:03:25.599Z,22.2
2023-03-28T09:09:33.164Z,23.4
2023-03-28T09:15:09.456Z,24.7
2023-03-28T09:21:11.242Z,24.3
2023-03-28T09:27:16.288Z,24.6
2023-03-28T09:32:54.011Z,23.4
2023-03-28T09:38:57.578Z,23.8
2023-03-28T09:45:00.088Z,23.1
2023-03-28T09:51:03.020Z,23.1
2023-03-28T09:56:48.127Z,22.8
2023-03-28T10:02:40.784Z,22.4
2023-03-28T10:08:32.369Z,22.6
2023-03-28T10:14:23.137Z,24.5
2023-03-28T10:20:14.894Z,23.6
2023-03-28T10:26:05.575Z,23.1
2023-03-28T10:31:41.862Z,23.5
2023-03-28T10:37:35.376Z,22.9
2023-03-28T10:43:27.684Z,22.4
2023-03-28T10:49:18.853Z,23.4
2023-03-28T10:55:10.262Z,25.1
2023-03-28T11:01:02.819Z,23.9
2023-03-28T11:07:11.985Z,23.5
2023-03-28T11:13:21.538Z,23
2023-03-28T11:18:58.000Z,22.5
2023-03-28T11:25:01.546Z,22.1
2023-03-28T11:31:21.597Z,24.1
2023-03-28T11:36:58.050Z,24
2023-03-28T11:42:51.008Z,23.2
2023-03-28T11:48:56.441Z,22.9
2023-03-28T11:54:48.659Z,22.6
2023-03-28T12:00:49.704Z,22.1
2023-03-28T12:06:56.040Z,23.3
2023-03-28T12:12:50.887Z,25.3
2023-03-28T12:18:54.502Z,23.9
2023-03-28T12:24:47.560Z,23.5
2023-03-28T12:30:23.737Z,23
2023-03-28T12:36:16.343Z,22.6
2023-03-28T12:41:52.698Z,22.1
2023-03-28T12:47:45.160Z,23.8
2023-03-28T12:53:36.933Z,25.7
2023-03-28T12:59:31.014Z,23.7
2023-03-28T13:05:22.917Z,23.4
2023-03-28T13:11:15.145Z,22.9
2023-03-28T13:17:07.516Z,22.4
2023-03-28T13:22:44.276Z,22.1
2023-03-28T13:28:21.608Z,24.3
2023-03-28T13:34:13.353Z,24.3
2023-03-28T13:39:53.439Z,23.8
2023-03-28T13:45:28.910Z,23.4
2023-03-28T13:51:16.598Z,22.9
2023-03-28T13:57:21.157Z,22.5
2023-03-28T14:03:13.183Z,22.4
2023-03-28T14:09:06.351Z,24.6
2023-03-28T14:15:00.022Z,24.1
2023-03-28T14:20:52.246Z,23.6
2023-03-28T14:26:36.996Z,23.3
2023-03-28T14:32:32.566Z,22.8
2023-03-28T14:38:33.721Z,22.3
2023-03-28T14:44:24.929Z,21.9
2023-03-28T14:50:16.783Z,21.4
2023-03-28T14:56:10.331Z,21.1
2023-03-28T15:02:02.167Z,20.7
2023-03-28T15:07:41.248Z,20.3
2023-03-28T15:13:34.716Z,20
2023-03-28T15:19:27.143Z,19.7
2023-03-28T15:25:18.669Z,19.4
2023-03-28T15:31:12.465Z,19.2
2023-03-28T15:36:51.313Z,18.9
2023-03-28T15:42:42.381Z,18.8
2023-03-28T15:48:33.768Z,18.6
2023-03-28T15:54:44.642Z,18.6
2023-03-28T16:00:36.075Z,18.6
2023-03-28T16:06:30.527Z,18.5
2023-03-28T16:12:22.544Z,18.5
2023-03-28T16:17:59.517Z,18.4
2023-03-28T16:23:50.602Z,18.4
2023-03-28T16:29:27.683Z,18.3
2023-03-28T16:35:04.651Z,18.1
2023-03-28T16:40:56.538Z,18
2023-03-28T16:46:47.725Z,17.9
2023-03-28T16:52:38.819Z,17.8
2023-03-28T16:57:59.456Z,17.7
2023-03-28T17:03:52.831Z,17.7
2023-03-28T17:09:47.034Z,17.9
2023-03-28T17:15:38.989Z,18.1
2023-03-28T17:21:00.084Z,18.5
2023-03-28T17:27:07.873Z,18.9
2023-03-28T17:33:01.463Z,19.3
2023-03-28T17:38:53.783Z,19.6
2023-03-28T17:44:45.983Z,19.9
2023-03-28T17:50:41.204Z,20.1
2023-03-28T17:56:18.791Z,20.3
2023-03-28T18:01:55.714Z,20.4
2023-03-28T18:07:50.727Z,20.5
2023-03-28T18:13:42.927Z,20.7
2023-03-28T18:19:19.995Z,20.6
2023-03-28T18:24:55.387Z,20.6
2023-03-28T18:30:34.775Z,20.5
2023-03-28T18:36:31.468Z,20.4
2023-03-28T18:41:55.092Z,20.3
2023-03-28T18:47:47.796Z,20.1
2023-03-28T18:53:24.770Z,19.9
2023-03-28T18:59:02.345Z,19.8
2023-03-28T19:04:41.451Z,19.6
2023-03-28T19:10:03.599Z,19.3
2023-03-28T19:15:40.494Z,19.1
2023-03-28T19:21:05.293Z,18.9
2023-03-28T19:26:43.075Z,18.8
2023-03-28T19:32:37.330Z,18.6
2023-03-28T19:38:31.071Z,18.4
2023-03-28T19:43:55.312Z,18.2
2023-03-28T19:49:51.784Z,18.1
2023-03-28T19:55:44.636Z,17.9
2023-03-28T20:01:37.231Z,17.7
2023-03-28T20:06:59.375Z,17.6
2023-03-28T20:12:38.438Z,17.4
2023-03-28T20:18:16.271Z,17.3
2023-03-28T20:24:08.225Z,17.2
2023-03-28T20:29:44.511Z,17.1
2023-03-28T20:35:36.228Z,16.9
2023-03-28T20:41:29.705Z,14.8
2023-03-28T20:47:06.375Z,25.6
2023-03-28T20:53:01.668Z,24.9
2023-03-28T20:58:54.024Z,24.8
2023-03-28T21:04:46.056Z,24.1
2023-03-28T21:10:37.303Z,24.3
2023-03-28T21:16:29.169Z,23.7
2023-03-28T21:22:04.857Z,23.8
2023-03-28T21:27:40.798Z,23.8
2023-03-28T21:33:03.608Z,23.4
2023-03-28T21:38:39.435Z,23.6
2023-03-28T21:44:15.099Z,23.1
2023-03-28T21:49:05.237Z,23.7
2023-03-28T21:54:56.865Z,26.1
2023-03-28T22:00:50.147Z,25.5
2023-03-28T22:06:36.560Z,25.2
2023-03-28T22:11:26.676Z,24.8
2023-03-28T22:17:03.336Z,24.4
2023-03-28T22:22:23.798Z,24.1
2023-03-28T22:27:28.258Z,23.9
2023-03-28T22:33:04.648Z,23.6
2023-03-28T22:38:40.282Z,23.4
2023-03-28T22:44:16.094Z,23.1
2023-03-28T22:49:37.723Z,23.3
2023-03-28T22:55:14.203Z,25.6
2023-03-28T23:00:35.616Z,25.6
2023-03-28T23:06:27.833Z,24.9
2023-03-28T23:12:03.445Z,24.8
2023-03-28T23:17:55.509Z,24.1
2023-03-28T23:23:32.573Z,24
2023-03-28T23:29:26.335Z,23.4
2023-03-28T23:35:17.678Z,23.3
2023-03-28T23:41:09.870Z,23.3
2023-03-28T23:46:45.811Z,25.3
2023-03-28T23:52:06.698Z,26.8
2023-03-28T23:57:27.622Z,24.6
